createdAt,value
2018-02-25T00:00:28.995Z,-4.65
2018-02-25T00:01:34.253Z,-4.71
2018-02-25T00:02:39.526Z,-4.71
2018-02-25T00:03:45.047Z,-4.76
2018-02-25T00:04:50.478Z,-4.76
2018-02-25T00:05:55.833Z,-4.77
2018-02-25T00:07:01.204Z,-4.71
2018-02-25T00:08:06.626Z,-4.78
2018-02-25T00:09:12.339Z,-4.82
2018-02-25T00:10:17.723Z,-4.82
2018-02-25T00:11:23.296Z,-4.83
2018-02-25T00:12:29.032Z,-4.86
2018-02-25T00:13:34.412Z,-4.86
2018-02-25T00:14:39.637Z,-4.81
2018-02-25T00:15:45.309Z,-4.79
2018-02-25T00:16:50.626Z,-4.86
2018-02-25T00:17:55.941Z,-4.87
2018-02-25T00:19:01.323Z,-4.88
2018-02-25T00:20:06.625Z,-4.91
2018-02-25T00:21:12.063Z,-4.91
2018-02-25T00:22:18.448Z,-4.92
2018-02-25T00:23:23.753Z,-4.86
2018-02-25T00:24:29.204Z,-4.92
2018-02-25T00:25:34.766Z,-4.98
2018-02-25T00:26:40.102Z,-4.98
2018-02-25T00:27:45.389Z,-4.96
2018-02-25T00:28:51.312Z,-4.96
2018-02-25T00:29:56.676Z,-4.92
2018-02-25T00:31:03.034Z,-4.99
2018-02-25T00:32:08.422Z,-4.95
2018-02-25T00:33:13.868Z,-5.00
2018-02-25T00:34:19.185Z,-5.03
2018-02-25T00:35:24.911Z,-5.02
2018-02-25T00:36:30.492Z,-5.00
2018-02-25T00:37:35.956Z,-4.86
2018-02-25T00:38:41.455Z,-4.97
2018-02-25T00:39:46.983Z,-5.07
2018-02-25T00:40:52.479Z,-5.10
2018-02-25T00:41:58.261Z,-5.11
2018-02-25T00:43:04.569Z,-5.11
2018-02-25T00:44:10.104Z,-5.02
2018-02-25T00:45:15.805Z,-5.10
2018-02-25T00:46:21.299Z,-5.13
2018-02-25T00:47:26.766Z,-5.11
2018-02-25T00:48:31.980Z,-5.13
2018-02-25T00:49:37.500Z,-5.15
2018-02-25T00:50:42.817Z,-5.14
2018-02-25T00:51:48.201Z,-5.12
2018-02-25T00:52:53.713Z,-5.13
2018-02-25T00:53:59.095Z,-5.16
2018-02-25T00:55:04.949Z,-5.20
2018-02-25T00:56:10.623Z,-5.03
2018-02-25T00:57:16.519Z,-5.09
2018-02-25T00:58:21.979Z,-5.15
2018-02-25T00:59:27.340Z,-5.05
2018-02-25T01:00:32.777Z,-5.15
2018-02-25T01:01:38.551Z,-5.21
2018-02-25T01:02:44.051Z,-5.15
2018-02-25T01:03:49.875Z,-5.19
2018-02-25T01:04:55.402Z,-5.25
2018-02-25T01:06:00.827Z,-5.26
2018-02-25T01:07:06.429Z,-5.28
2018-02-25T01:08:12.130Z,-5.28
2018-02-25T01:09:17.657Z,-5.33
2018-02-25T01:10:23.268Z,-5.30
2018-02-25T01:11:28.883Z,-5.28
2018-02-25T01:12:34.753Z,-5.33
2018-02-25T01:13:40.326Z,-5.28
2018-02-25T01:14:46.219Z,-5.32
2018-02-25T01:15:51.856Z,-5.34
2018-02-25T01:16:57.682Z,-5.34
2018-02-25T01:18:03.220Z,-5.34
2018-02-25T01:19:09.728Z,-5.35
2018-02-25T01:20:16.476Z,-5.38
2018-02-25T01:21:22.397Z,-5.42
2018-02-25T01:22:28.028Z,-5.38
2018-02-25T01:23:33.796Z,-5.29
2018-02-25T01:24:39.373Z,-5.29
2018-02-25T01:25:45.419Z,-5.22
2018-02-25T01:26:50.975Z,-5.29
2018-02-25T01:27:57.009Z,-5.34
2018-02-25T01:29:02.612Z,-5.36
2018-02-25T01:30:08.201Z,-5.43
2018-02-25T01:31:13.619Z,-5.44
2018-02-25T01:32:19.410Z,-5.44
2018-02-25T01:33:24.833Z,-5.42
2018-02-25T01:34:30.250Z,-5.42
2018-02-25T01:35:35.813Z,-5.33
2018-02-25T01:36:41.136Z,-5.42
2018-02-25T01:37:46.813Z,-5.45
2018-02-25T01:38:53.043Z,-5.43
2018-02-25T01:39:59.032Z,-5.47
2018-02-25T01:41:04.757Z,-5.39
2018-02-25T01:42:10.448Z,-5.40
2018-02-25T01:43:16.280Z,-5.43
2018-02-25T01:44:22.054Z,-5.50
2018-02-25T01:45:28.152Z,-5.47
2018-02-25T01:46:34.248Z,-5.39
2018-02-25T01:47:40.201Z,-5.34
2018-02-25T01:48:46.222Z,-5.40
2018-02-25T01:49:51.991Z,-5.36
2018-02-25T01:51:01.867Z,-5.50
2018-02-25T01:52:08.143Z,-5.59
2018-02-25T01:53:14.243Z,-5.35
2018-02-25T01:54:19.920Z,-5.46
2018-02-25T01:55:25.680Z,-5.45
2018-02-25T01:56:31.492Z,-5.46
2018-02-25T01:57:36.992Z,-5.51
2018-02-25T01:58:42.638Z,-5.57
2018-02-25T01:59:48.436Z,-5.42
2018-02-25T02:00:54.188Z,-5.43
2018-02-25T02:01:59.969Z,-5.48
2018-02-25T02:03:05.526Z,-5.43
2018-02-25T02:04:11.217Z,-5.50
2018-02-25T02:05:17.078Z,-5.63
2018-02-25T02:06:23.097Z,-5.63
2018-02-25T02:07:28.742Z,-5.69
2018-02-25T02:08:34.620Z,-5.71
2018-02-25T02:09:40.762Z,-5.65
2018-02-25T02:10:46.821Z,-5.55
2018-02-25T02:11:52.750Z,-5.65
2018-02-25T02:12:58.935Z,-5.60
2018-02-25T02:14:04.987Z,-5.55
2018-02-25T02:15:11.076Z,-5.61
2018-02-25T02:16:16.973Z,-5.65
2018-02-25T02:17:22.587Z,-5.55
2018-02-25T02:18:28.298Z,-5.58
2018-02-25T02:19:34.320Z,-5.56
2018-02-25T02:20:40.083Z,-5.68
2018-02-25T02:21:46.100Z,-5.75
2018-02-25T02:22:51.794Z,-5.76
2018-02-25T02:23:57.676Z,-5.78
2018-02-25T02:25:03.276Z,-5.78
2018-02-25T02:26:09.678Z,-5.72
2018-02-25T02:27:15.614Z,-5.68
2018-02-25T02:28:21.335Z,-5.78
2018-02-25T02:29:27.369Z,-5.77
2018-02-25T02:30:33.475Z,-5.77
2018-02-25T02:31:39.757Z,-5.73
2018-02-25T02:32:45.887Z,-5.79
2018-02-25T02:33:51.346Z,-5.85
2018-02-25T02:34:57.378Z,-5.86
2018-02-25T02:36:03.504Z,-5.80
2018-02-25T02:37:09.322Z,-5.80
2018-02-25T02:38:14.796Z,-5.79
2018-02-25T02:39:20.775Z,-5.82
2018-02-25T02:40:26.790Z,-5.88
2018-02-25T02:41:32.669Z,-5.90
2018-02-25T02:42:38.473Z,-5.91
2018-02-25T02:43:44.522Z,-5.90
2018-02-25T02:44:50.313Z,-5.91
2018-02-25T02:45:56.652Z,-5.92
2018-02-25T02:47:02.475Z,-5.92
2018-02-25T02:48:08.353Z,-5.93
2018-02-25T02:49:14.063Z,-5.91
2018-02-25T02:50:19.924Z,-5.95
2018-02-25T02:51:25.779Z,-6.01
2018-02-25T02:52:31.867Z,-5.97
2018-02-25T02:53:37.627Z,-5.89
2018-02-25T02:54:43.420Z,-5.80
2018-02-25T02:55:48.988Z,-5.82
2018-02-25T02:56:55.030Z,-5.89
2018-02-25T02:58:01.040Z,-5.92
2018-02-25T02:59:07.294Z,-5.99
2018-02-25T03:00:12.957Z,-6.04
2018-02-25T03:01:18.885Z,-5.98
2018-02-25T03:02:24.903Z,-5.88
2018-02-25T03:03:30.839Z,-5.95
2018-02-25T03:04:36.915Z,-5.99
2018-02-25T03:05:43.294Z,-6.01
2018-02-25T03:06:49.152Z,-5.95
2018-02-25T03:07:55.211Z,-5.97
2018-02-25T03:09:01.182Z,-6.01
2018-02-25T03:10:07.115Z,-6.05
2018-02-25T03:11:12.840Z,-5.99
2018-02-25T03:12:18.357Z,-5.99
2018-02-25T03:13:24.104Z,-6.01
2018-02-25T03:14:29.830Z,-5.97
2018-02-25T03:15:35.285Z,-5.97
2018-02-25T03:16:41.063Z,-5.97
2018-02-25T03:17:47.180Z,-5.98
2018-02-25T03:18:52.878Z,-6.02
2018-02-25T03:19:58.587Z,-6.01
2018-02-25T03:21:04.215Z,-5.92
2018-02-25T03:22:09.873Z,-5.93
2018-02-25T03:23:15.285Z,-5.95
2018-02-25T03:24:20.976Z,-6.00
2018-02-25T03:25:26.335Z,-5.99
2018-02-25T03:26:32.083Z,-5.94
2018-02-25T03:27:37.863Z,-5.99
2018-02-25T03:28:44.012Z,-5.90
2018-02-25T03:29:49.916Z,-6.10
2018-02-25T03:30:55.987Z,-6.01
2018-02-25T03:32:01.678Z,-6.14
2018-02-25T03:33:07.546Z,-6.10
2018-02-25T03:34:13.325Z,-6.04
2018-02-25T03:35:18.984Z,-6.01
2018-02-25T03:36:24.482Z,-6.02
2018-02-25T03:37:30.727Z,-6.00
2018-02-25T03:38:36.825Z,-6.00
2018-02-25T03:39:42.328Z,-6.10
2018-02-25T03:40:48.403Z,-6.19
2018-02-25T03:41:54.049Z,-6.23
2018-02-25T03:42:59.555Z,-6.19
2018-02-25T03:44:05.170Z,-6.14
2018-02-25T03:45:10.560Z,-6.13
2018-02-25T03:46:16.147Z,-6.14
2018-02-25T03:47:21.737Z,-6.07
2018-02-25T03:48:27.311Z,-6.07
2018-02-25T03:49:32.954Z,-6.10
2018-02-25T03:50:38.812Z,-6.10
2018-02-25T03:51:44.550Z,-6.17
2018-02-25T03:52:50.292Z,-6.13
2018-02-25T03:53:56.776Z,-6.21
2018-02-25T03:55:02.237Z,-6.10
2018-02-25T03:56:07.457Z,-6.15
2018-02-25T03:57:14.126Z,-6.23
2018-02-25T03:58:19.777Z,-6.24
2018-02-25T03:59:25.077Z,-6.38
2018-02-25T04:00:31.666Z,-6.38
2018-02-25T04:01:36.842Z,-6.23
2018-02-25T04:02:41.974Z,-6.23
2018-02-25T04:03:47.350Z,-6.32
2018-02-25T04:04:52.592Z,-6.22
2018-02-25T04:05:58.648Z,-6.39
2018-02-25T04:07:04.190Z,-6.30
2018-02-25T04:08:09.475Z,-6.39
2018-02-25T04:09:14.728Z,-6.46
2018-02-25T04:10:20.692Z,-6.52
2018-02-25T04:11:26.304Z,-6.49
2018-02-25T04:12:31.657Z,-6.42
2018-02-25T04:13:36.988Z,-6.48
2018-02-25T04:14:42.163Z,-6.55
2018-02-25T04:15:47.582Z,-6.58
2018-02-25T04:16:53.310Z,-6.56
2018-02-25T04:17:58.663Z,-6.60
2018-02-25T04:19:04.066Z,-6.52
2018-02-25T04:20:09.457Z,-6.43
2018-02-25T04:21:14.828Z,-6.50
2018-02-25T04:22:20.261Z,-6.43
2018-02-25T04:23:26.017Z,-6.39
2018-02-25T04:24:31.386Z,-6.47
2018-02-25T04:25:36.620Z,-6.55
2018-02-25T04:26:42.062Z,-6.57
2018-02-25T04:27:47.899Z,-6.64
2018-02-25T04:28:53.205Z,-6.59
2018-02-25T04:29:59.118Z,-6.48
2018-02-25T04:31:04.596Z,-6.53
2018-02-25T04:32:10.135Z,-6.56
2018-02-25T04:33:15.662Z,-6.55
2018-02-25T04:34:21.586Z,-6.52
2018-02-25T04:35:26.952Z,-6.55
2018-02-25T04:36:32.463Z,-6.54
2018-02-25T04:37:38.206Z,-6.57
2018-02-25T04:38:43.512Z,-6.49
2018-02-25T04:39:48.964Z,-6.44
2018-02-25T04:40:54.146Z,-6.35
2018-02-25T04:41:59.545Z,-6.47
2018-02-25T04:43:05.142Z,-6.46
2018-02-25T04:44:10.501Z,-6.56
2018-02-25T04:45:16.013Z,-6.55
2018-02-25T04:46:21.273Z,-6.55
2018-02-25T04:47:26.953Z,-6.38
2018-02-25T04:48:32.147Z,-6.40
2018-02-25T04:49:37.977Z,-6.49
2018-02-25T04:50:43.569Z,-6.35
2018-02-25T04:51:48.886Z,-6.42
2018-02-25T04:52:54.354Z,-6.41
2018-02-25T04:53:59.967Z,-6.54
2018-02-25T04:55:06.480Z,-6.48
2018-02-25T04:56:12.565Z,-6.27
2018-02-25T04:57:18.115Z,-6.27
2018-02-25T04:58:23.390Z,-6.32
2018-02-25T04:59:29.134Z,-6.47
2018-02-25T05:00:34.366Z,-6.50
2018-02-25T05:01:39.834Z,-6.56
2018-02-25T05:02:45.438Z,-6.54
2018-02-25T05:03:50.916Z,-6.60
2018-02-25T05:04:56.179Z,-6.63
2018-02-25T05:06:01.488Z,-6.52
2018-02-25T05:07:07.009Z,-6.60
2018-02-25T05:08:12.544Z,-6.69
2018-02-25T05:09:18.359Z,-6.73
2018-02-25T05:10:23.863Z,-6.67
2018-02-25T05:11:29.109Z,-6.71
2018-02-25T05:12:34.756Z,-6.73
2018-02-25T05:13:40.134Z,-6.68
2018-02-25T05:14:45.958Z,-6.75
2018-02-25T05:15:51.549Z,-6.78
2018-02-25T05:16:56.664Z,-6.79
2018-02-25T05:18:02.013Z,-6.75
2018-02-25T05:19:07.404Z,-6.79
2018-02-25T05:20:12.671Z,-6.67
2018-02-25T05:21:18.499Z,-6.72
2018-02-25T05:22:23.830Z,-6.70
2018-02-25T05:23:29.490Z,-6.73
2018-02-25T05:24:34.890Z,-6.78
2018-02-25T05:25:40.389Z,-6.75
2018-02-25T05:26:45.765Z,-6.71
2018-02-25T05:27:51.590Z,-6.74
2018-02-25T05:28:57.138Z,-6.74
2018-02-25T05:30:02.305Z,-6.77
2018-02-25T05:31:08.061Z,-6.73
2018-02-25T05:32:13.471Z,-6.79
2018-02-25T05:33:19.629Z,-6.78
2018-02-25T05:34:24.689Z,-6.87
2018-02-25T05:35:29.966Z,-6.85
2018-02-25T05:36:35.228Z,-6.85
2018-02-25T05:37:40.362Z,-6.82
2018-02-25T05:38:45.850Z,-6.84
2018-02-25T05:39:51.509Z,-6.83
2018-02-25T05:40:56.888Z,-6.79
2018-02-25T05:42:02.176Z,-6.81
2018-02-25T05:43:07.404Z,-6.85
2018-02-25T05:44:12.802Z,-6.92
2018-02-25T05:45:18.480Z,-6.86
2018-02-25T05:46:24.318Z,-6.77
2018-02-25T05:47:29.688Z,-6.72
2018-02-25T05:48:34.989Z,-6.81
2018-02-25T05:49:40.227Z,-6.81
2018-02-25T05:50:45.439Z,-6.83
2018-02-25T05:51:50.667Z,-6.83
2018-02-25T05:52:56.686Z,-6.90
2018-02-25T05:54:02.140Z,-6.85
2018-02-25T05:55:07.401Z,-6.76
2018-02-25T05:56:12.792Z,-6.83
2018-02-25T05:57:18.155Z,-6.96
2018-02-25T05:58:23.671Z,-6.99
2018-02-25T05:59:29.235Z,-6.99
2018-02-25T06:00:34.730Z,-6.89
2018-02-25T06:01:40.387Z,-6.94
2018-02-25T06:02:45.717Z,-6.97
2018-02-25T06:03:52.031Z,-7.02
2018-02-25T06:04:57.787Z,-7.01
2018-02-25T06:06:03.749Z,-6.96
2018-02-25T06:07:09.225Z,-7.01
2018-02-25T06:08:14.686Z,-7.09
2018-02-25T06:09:20.161Z,-7.06
2018-02-25T06:10:25.713Z,-7.09
2018-02-25T06:11:31.544Z,-7.08
2018-02-25T06:12:37.795Z,-7.03
2018-02-25T06:13:43.435Z,-6.99
2018-02-25T06:14:49.002Z,-7.00
2018-02-25T06:15:54.722Z,-7.05
2018-02-25T06:17:00.540Z,-7.08
2018-02-25T06:18:05.839Z,-7.13
2018-02-25T06:19:11.707Z,-7.09
2018-02-25T06:20:17.212Z,-7.07
2018-02-25T06:21:22.901Z,-7.05
2018-02-25T06:22:28.611Z,-7.07
2018-02-25T06:23:34.609Z,-7.03
2018-02-25T06:24:40.601Z,-7.11
2018-02-25T06:25:46.655Z,-7.12
2018-02-25T06:26:52.238Z,-7.11
2018-02-25T06:27:57.902Z,-7.16
2018-02-25T06:29:03.710Z,-7.18
2018-02-25T06:30:09.467Z,-7.24
2018-02-25T06:31:15.388Z,-7.23
2018-02-25T06:32:20.978Z,-7.18
2018-02-25T06:33:26.772Z,-7.20
2018-02-25T06:34:32.339Z,-7.18
2018-02-25T06:35:38.314Z,-7.20
2018-02-25T06:36:44.127Z,-7.20
2018-02-25T06:37:50.152Z,-7.21
2018-02-25T06:38:56.066Z,-7.14
2018-02-25T06:40:02.131Z,-7.20
2018-02-25T06:41:07.825Z,-7.18
2018-02-25T06:42:13.312Z,-7.12
2018-02-25T06:43:19.364Z,-7.06
2018-02-25T06:44:25.010Z,-6.96
2018-02-25T06:45:30.813Z,-6.93
2018-02-25T06:46:36.324Z,-6.82
2018-02-25T06:47:41.893Z,-6.80
2018-02-25T06:48:47.538Z,-6.61
2018-02-25T06:49:53.775Z,-6.49
2018-02-25T06:50:59.592Z,-6.43
2018-02-25T06:52:05.184Z,-6.51
2018-02-25T06:53:10.790Z,-6.39
2018-02-25T06:54:16.732Z,-6.25
2018-02-25T06:55:22.621Z,-6.16
2018-02-25T06:56:28.771Z,-5.98
2018-02-25T06:57:34.473Z,-5.83
2018-02-25T06:58:40.703Z,-5.75
2018-02-25T06:59:47.347Z,-6.03
2018-02-25T07:00:53.015Z,-6.03
2018-02-25T07:01:58.505Z,-6.04
2018-02-25T07:03:04.427Z,-5.90
2018-02-25T07:04:10.203Z,-5.63
2018-02-25T07:05:15.862Z,-5.43
2018-02-25T07:06:21.437Z,-5.36
2018-02-25T07:07:27.286Z,-5.36
2018-02-25T07:08:32.994Z,-5.14
2018-02-25T07:09:39.333Z,-5.12
2018-02-25T07:10:46.618Z,-5.13
2018-02-25T07:11:52.490Z,-4.91
2018-02-25T07:12:58.498Z,-4.70
2018-02-25T07:14:04.610Z,-4.69
2018-02-25T07:15:10.262Z,-4.46
2018-02-25T07:16:16.503Z,-4.59
2018-02-25T07:17:22.400Z,-5.09
2018-02-25T07:18:28.420Z,-4.96
2018-02-25T07:19:34.401Z,-4.77
2018-02-25T07:20:40.459Z,-4.43
2018-02-25T07:21:46.788Z,-4.59
2018-02-25T07:22:52.750Z,-4.37
2018-02-25T07:23:58.807Z,-4.31
2018-02-25T07:25:04.711Z,-4.22
2018-02-25T07:26:10.772Z,-4.62
2018-02-25T07:27:16.662Z,-4.46
2018-02-25T07:28:22.506Z,-4.33
2018-02-25T07:29:28.769Z,-4.05
2018-02-25T07:30:34.437Z,-4.05
2018-02-25T07:31:40.259Z,-3.96
2018-02-25T07:32:45.954Z,-4.25
2018-02-25T07:33:51.698Z,-4.09
2018-02-25T07:34:57.020Z,-3.97
2018-02-25T07:36:03.004Z,-3.48
2018-02-25T07:37:08.583Z,-3.20
2018-02-25T07:38:14.265Z,-3.26
2018-02-25T07:39:20.048Z,-3.72
2018-02-25T07:40:25.548Z,-3.80
2018-02-25T07:41:30.926Z,-3.28
2018-02-25T07:42:37.073Z,-3.09
2018-02-25T07:43:42.788Z,-2.96
2018-02-25T07:44:48.585Z,-2.25
2018-02-25T07:45:54.252Z,-2.61
2018-02-25T07:46:59.932Z,-2.87
2018-02-25T07:48:05.343Z,-2.73
2018-02-25T07:49:11.185Z,-2.95
2018-02-25T07:50:16.778Z,-2.83
2018-02-25T07:51:22.372Z,-3.29
2018-02-25T07:52:27.796Z,-3.36
2018-02-25T07:53:34.290Z,-3.44
2018-02-25T07:54:40.030Z,-2.93
2018-02-25T07:55:45.821Z,-2.69
2018-02-25T07:56:51.432Z,-2.67
2018-02-25T07:57:57.104Z,-2.20
2018-02-25T07:59:02.808Z,-2.24
2018-02-25T08:00:08.384Z,-1.99
2018-02-25T08:01:14.184Z,-1.39
2018-02-25T08:02:20.152Z,-1.78
2018-02-25T08:03:25.922Z,-1.68
2018-02-25T08:04:31.496Z,-0.83
2018-02-25T08:05:37.363Z,-0.90
2018-02-25T08:06:42.880Z,-0.93
2018-02-25T08:07:48.484Z,-0.40
2018-02-25T08:08:54.202Z,-0.27
2018-02-25T08:09:59.803Z,0.08
2018-02-25T08:11:05.281Z,-0.81
2018-02-25T08:12:10.734Z,-0.78
2018-02-25T08:13:16.388Z,-0.69
2018-02-25T08:14:21.975Z,-0.51
2018-02-25T08:15:27.876Z,-0.26
2018-02-25T08:16:33.339Z,-0.17
2018-02-25T08:17:39.028Z,-0.14
2018-02-25T08:18:44.515Z,-0.79
2018-02-25T08:19:50.148Z,-0.69
2018-02-25T08:20:55.856Z,0.18
2018-02-25T08:22:01.972Z,0.32
2018-02-25T08:23:07.555Z,0.38
2018-02-25T08:24:12.963Z,0.19
2018-02-25T08:25:18.629Z,-0.08
2018-02-25T08:26:24.236Z,0.16
2018-02-25T08:27:29.748Z,0.68
2018-02-25T08:28:35.476Z,0.99
2018-02-25T08:29:41.169Z,1.42
2018-02-25T08:30:46.726Z,1.10
2018-02-25T08:31:52.307Z,1.40
2018-02-25T08:32:57.503Z,1.46
2018-02-25T08:34:03.026Z,0.66
2018-02-25T08:35:09.010Z,0.82
2018-02-25T08:36:14.716Z,0.98
2018-02-25T08:37:20.646Z,1.26
2018-02-25T08:38:26.908Z,0.85
2018-02-25T08:39:32.401Z,-0.02
2018-02-25T08:40:37.912Z,0.89
2018-02-25T08:41:43.803Z,1.45
2018-02-25T08:42:49.327Z,1.55
2018-02-25T08:43:54.788Z,0.99
2018-02-25T08:45:00.087Z,1.61
2018-02-25T08:46:05.594Z,1.61
2018-02-25T08:47:11.053Z,1.24
2018-02-25T08:48:16.809Z,0.34
2018-02-25T08:49:22.231Z,1.06
2018-02-25T08:50:27.985Z,1.56
2018-02-25T08:51:33.448Z,2.51
2018-02-25T08:52:38.978Z,2.99
2018-02-25T08:53:44.651Z,1.89
2018-02-25T08:54:50.650Z,1.84
2018-02-25T08:55:56.142Z,2.15
2018-02-25T08:57:01.563Z,2.28
2018-02-25T08:58:06.888Z,2.07
2018-02-25T08:59:12.241Z,2.03
2018-02-25T09:00:17.708Z,2.40
2018-02-25T09:01:23.454Z,2.18
2018-02-25T09:02:29.098Z,1.94
2018-02-25T09:03:34.623Z,1.68
2018-02-25T09:04:39.978Z,1.72
2018-02-25T09:05:45.112Z,2.92
2018-02-25T09:06:50.471Z,3.49
2018-02-25T09:07:56.389Z,3.15
2018-02-25T09:09:01.697Z,2.45
2018-02-25T09:10:07.066Z,2.10
2018-02-25T09:11:12.416Z,2.62
2018-02-25T09:12:17.705Z,2.22
2018-02-25T09:13:23.223Z,2.64
2018-02-25T09:14:28.951Z,3.13
2018-02-25T09:15:34.248Z,2.52
2018-02-25T09:16:39.560Z,2.15
2018-02-25T09:17:44.849Z,1.95
2018-02-25T09:18:50.232Z,1.90
2018-02-25T09:19:55.527Z,1.71
2018-02-25T09:21:01.141Z,1.86
2018-02-25T09:22:06.470Z,2.03
2018-02-25T09:23:11.648Z,2.17
2018-02-25T09:24:16.876Z,1.91
2018-02-25T09:25:22.221Z,2.07
2018-02-25T09:26:27.604Z,2.26
2018-02-25T09:27:33.436Z,2.33
2018-02-25T09:28:38.970Z,3.11
2018-02-25T09:29:44.559Z,2.96
2018-02-25T09:30:49.974Z,3.03
2018-02-25T09:31:55.544Z,3.11
2018-02-25T09:33:00.968Z,3.46
2018-02-25T09:34:06.886Z,3.46
2018-02-25T09:35:12.544Z,2.73
2018-02-25T09:36:17.961Z,2.48
2018-02-25T09:37:23.768Z,2.80
2018-02-25T09:38:29.369Z,3.14
2018-02-25T09:39:35.228Z,3.38
2018-02-25T09:40:41.157Z,3.55
2018-02-25T09:41:46.748Z,2.89
2018-02-25T09:42:52.264Z,2.41
2018-02-25T09:43:57.785Z,2.38
2018-02-25T09:45:03.711Z,2.28
2018-02-25T09:46:09.673Z,2.26
2018-02-25T09:47:15.504Z,2.42
2018-02-25T09:48:21.078Z,1.60
2018-02-25T09:49:26.830Z,2.26
2018-02-25T09:50:32.572Z,2.53
2018-02-25T09:51:38.301Z,2.40
2018-02-25T09:52:43.852Z,1.81
2018-02-25T09:53:49.673Z,2.01
2018-02-25T09:54:55.118Z,1.79
2018-02-25T09:56:00.585Z,2.28
2018-02-25T09:57:06.436Z,2.35
2018-02-25T09:58:12.161Z,1.14
2018-02-25T09:59:17.708Z,1.15
2018-02-25T10:00:23.150Z,1.49
2018-02-25T10:01:28.577Z,2.33
2018-02-25T10:02:34.134Z,2.80
2018-02-25T10:03:39.606Z,2.16
2018-02-25T10:04:45.589Z,2.34
2018-02-25T10:05:51.386Z,2.59
2018-02-25T10:06:57.116Z,2.44
2018-02-25T10:08:02.776Z,2.93
2018-02-25T10:09:08.451Z,3.57
2018-02-25T10:10:13.740Z,3.20
2018-02-25T10:11:19.055Z,3.13
2018-02-25T10:12:24.903Z,3.96
2018-02-25T10:13:30.504Z,3.05
2018-02-25T10:14:36.182Z,2.81
2018-02-25T10:15:41.760Z,2.65
2018-02-25T10:16:47.212Z,2.23
2018-02-25T10:17:53.134Z,3.33
2018-02-25T10:18:59.954Z,4.02
2018-02-25T10:20:05.707Z,3.81
2018-02-25T10:21:11.255Z,3.22
2018-02-25T10:22:16.523Z,3.50
2018-02-25T10:23:21.975Z,3.53
2018-02-25T10:24:28.707Z,3.48
2018-02-25T10:25:34.116Z,2.84
2018-02-25T10:26:39.540Z,2.28
2018-02-25T10:27:44.838Z,2.49
2018-02-25T10:28:50.229Z,3.14
2018-02-25T10:29:55.633Z,3.03
2018-02-25T10:31:01.192Z,3.49
2018-02-25T10:32:06.572Z,3.18
2018-02-25T10:33:12.060Z,3.64
2018-02-25T10:34:17.545Z,3.83
2018-02-25T10:35:22.824Z,3.78
2018-02-25T10:36:28.101Z,3.28
2018-02-25T10:37:33.965Z,3.63
2018-02-25T10:38:39.218Z,3.50
2018-02-25T10:39:44.594Z,3.74
2018-02-25T10:40:49.969Z,3.05
2018-02-25T10:41:55.499Z,3.27
2018-02-25T10:43:00.917Z,2.75
2018-02-25T10:44:06.722Z,3.34
2018-02-25T10:45:12.125Z,2.87
2018-02-25T10:46:17.528Z,2.59
2018-02-25T10:47:22.899Z,2.52
2018-02-25T10:48:28.329Z,2.68
2018-02-25T10:49:33.731Z,3.35
2018-02-25T10:50:39.510Z,3.00
2018-02-25T10:51:44.805Z,2.43
2018-02-25T10:52:52.865Z,2.71
2018-02-25T10:53:58.445Z,3.04
2018-02-25T10:55:04.818Z,3.16
2018-02-25T10:56:10.127Z,3.20
2018-02-25T10:57:15.643Z,3.10
2018-02-25T10:58:21.661Z,3.41
2018-02-25T10:59:26.867Z,3.29
2018-02-25T11:00:36.294Z,2.64
2018-02-25T11:01:41.756Z,1.98
2018-02-25T11:02:47.257Z,1.48
2018-02-25T11:03:52.955Z,1.28
2018-02-25T11:04:58.339Z,2.19
2018-02-25T11:06:03.766Z,1.85
2018-02-25T11:07:09.162Z,1.74
2018-02-25T11:08:14.510Z,2.36
2018-02-25T11:09:19.838Z,3.20
2018-02-25T11:10:25.573Z,2.87
2018-02-25T11:11:30.638Z,2.05
2018-02-25T11:12:35.856Z,2.65
2018-02-25T11:13:41.068Z,0.53
2018-02-25T11:14:46.172Z,0.90
2018-02-25T11:15:51.197Z,1.87
2018-02-25T11:16:56.541Z,1.79
2018-02-25T11:18:01.752Z,1.72
2018-02-25T11:19:07.137Z,2.13
2018-02-25T11:20:12.502Z,2.63
2018-02-25T11:21:17.861Z,3.01
2018-02-25T11:22:23.185Z,3.60
2018-02-25T11:23:28.802Z,3.39
2018-02-25T11:24:34.019Z,3.51
2018-02-25T11:25:39.356Z,3.81
2018-02-25T11:26:44.563Z,2.72
2018-02-25T11:27:49.908Z,2.65
2018-02-25T11:28:55.206Z,1.98
2018-02-25T11:30:01.745Z,2.45
2018-02-25T11:31:07.170Z,2.20
2018-02-25T11:32:12.479Z,1.88
2018-02-25T11:33:17.843Z,1.91
2018-02-25T11:34:23.118Z,2.55
2018-02-25T11:35:28.405Z,3.25
2018-02-25T11:36:34.063Z,3.76
2018-02-25T11:37:39.419Z,4.33
2018-02-25T11:38:44.602Z,4.31
2018-02-25T11:39:49.893Z,3.45
2018-02-25T11:40:55.114Z,4.13
2018-02-25T11:42:00.479Z,4.13
2018-02-25T11:43:06.118Z,4.09
2018-02-25T11:44:11.568Z,4.04
2018-02-25T11:45:16.836Z,3.03
2018-02-25T11:46:22.183Z,2.58
2018-02-25T11:47:27.617Z,2.60
2018-02-25T11:48:32.957Z,2.68
2018-02-25T11:49:39.724Z,2.95
2018-02-25T11:50:45.083Z,3.60
2018-02-25T11:51:50.751Z,3.66
2018-02-25T11:52:56.181Z,3.00
2018-02-25T11:54:01.704Z,2.12
2018-02-25T11:55:07.121Z,1.46
2018-02-25T11:56:12.899Z,1.97
2018-02-25T11:57:18.315Z,2.30
2018-02-25T11:58:23.724Z,1.85
2018-02-25T11:59:29.140Z,2.08
2018-02-25T12:00:34.539Z,3.40
2018-02-25T12:01:39.967Z,3.96
2018-02-25T12:02:45.836Z,3.60
2018-02-25T12:03:51.352Z,4.27
2018-02-25T12:04:56.806Z,4.90
2018-02-25T12:06:02.206Z,5.55
2018-02-25T12:07:07.680Z,6.23
2018-02-25T12:08:12.781Z,5.82
2018-02-25T12:09:18.355Z,5.64
2018-02-25T12:10:23.981Z,4.81
2018-02-25T12:11:29.285Z,4.56
2018-02-25T12:12:34.797Z,4.66
2018-02-25T12:13:39.944Z,3.89
2018-02-25T12:14:45.276Z,2.92
2018-02-25T12:15:50.913Z,2.86
2018-02-25T12:16:56.253Z,2.62
2018-02-25T12:18:01.507Z,2.72
2018-02-25T12:19:06.843Z,2.06
2018-02-25T12:20:12.152Z,2.41
2018-02-25T12:21:17.907Z,3.16
2018-02-25T12:22:23.495Z,2.73
2018-02-25T12:23:28.870Z,2.89
2018-02-25T12:24:34.298Z,2.74
2018-02-25T12:25:39.735Z,2.35
2018-02-25T12:26:45.190Z,1.68
2018-02-25T12:27:52.098Z,2.26
2018-02-25T12:29:04.071Z,1.71
2018-02-25T12:30:09.592Z,1.83
2018-02-25T12:31:18.254Z,2.02
2018-02-25T12:32:23.711Z,2.70
2018-02-25T12:33:29.613Z,3.33
2018-02-25T12:34:35.241Z,2.85
2018-02-25T12:35:40.677Z,3.22
2018-02-25T12:36:45.967Z,3.59
2018-02-25T12:37:51.075Z,3.90
2018-02-25T12:38:56.322Z,3.03
2018-02-25T12:40:01.752Z,2.99
2018-02-25T12:41:07.182Z,3.95
2018-02-25T12:42:12.523Z,4.31
2018-02-25T12:43:18.595Z,5.13
2018-02-25T12:44:24.887Z,4.68
2018-02-25T12:45:31.088Z,3.79
2018-02-25T12:46:36.946Z,3.72
2018-02-25T12:47:42.421Z,3.68
2018-02-25T12:48:47.947Z,2.22
2018-02-25T12:49:53.873Z,1.59
2018-02-25T12:51:00.102Z,2.23
2018-02-25T12:52:06.182Z,3.02
2018-02-25T12:53:11.856Z,3.16
2018-02-25T12:54:17.217Z,3.78
2018-02-25T12:55:22.580Z,4.24
2018-02-25T12:56:27.987Z,5.36
2018-02-25T12:57:33.439Z,5.56
2018-02-25T12:58:38.866Z,5.74
2018-02-25T12:59:44.640Z,4.79
2018-02-25T13:00:49.895Z,3.19
2018-02-25T13:01:55.444Z,3.22
2018-02-25T13:03:00.827Z,3.48
2018-02-25T13:04:06.374Z,2.62
2018-02-25T13:05:11.771Z,3.05
2018-02-25T13:06:17.532Z,3.20
2018-02-25T13:07:22.919Z,3.40
2018-02-25T13:08:28.323Z,2.74
2018-02-25T13:09:33.677Z,2.76
2018-02-25T13:10:39.380Z,3.25
2018-02-25T13:11:44.973Z,3.51
2018-02-25T13:12:50.693Z,3.11
2018-02-25T13:13:56.139Z,2.31
2018-02-25T13:15:01.437Z,1.96
2018-02-25T13:16:06.720Z,2.52
2018-02-25T13:17:12.041Z,1.92
2018-02-25T13:18:17.300Z,1.38
2018-02-25T13:19:22.940Z,2.46
2018-02-25T13:20:28.340Z,3.23
2018-02-25T13:21:33.776Z,3.11
2018-02-25T13:22:39.217Z,3.32
2018-02-25T13:23:44.935Z,3.21
2018-02-25T13:24:50.487Z,3.14
2018-02-25T13:25:56.352Z,3.54
2018-02-25T13:27:01.467Z,3.17
2018-02-25T13:28:06.859Z,3.38
2018-02-25T13:29:11.971Z,3.62
2018-02-25T13:30:17.349Z,3.42
2018-02-25T13:31:22.750Z,2.80
2018-02-25T13:32:28.578Z,2.32
2018-02-25T13:33:33.985Z,2.16
2018-02-25T13:34:39.476Z,2.19
2018-02-25T13:35:44.831Z,2.67
2018-02-25T13:36:50.428Z,2.61
2018-02-25T13:37:55.933Z,2.78
2018-02-25T13:39:01.647Z,2.86
2018-02-25T13:40:07.018Z,3.08
2018-02-25T13:41:12.594Z,3.02
2018-02-25T13:42:18.015Z,2.99
2018-02-25T13:43:23.425Z,3.21
2018-02-25T13:44:28.743Z,3.54
2018-02-25T13:45:34.374Z,3.34
2018-02-25T13:46:41.966Z,3.08
2018-02-25T13:47:47.393Z,2.53
2018-02-25T13:48:52.778Z,2.29
2018-02-25T13:49:58.198Z,1.90
2018-02-25T13:51:03.650Z,1.99
2018-02-25T13:52:09.437Z,2.67
2018-02-25T13:53:14.819Z,2.71
2018-02-25T13:54:20.222Z,2.91
2018-02-25T13:55:25.627Z,3.08
2018-02-25T13:56:30.958Z,3.46
2018-02-25T13:57:36.098Z,3.20
2018-02-25T13:58:41.715Z,3.45
2018-02-25T13:59:48.091Z,3.54
2018-02-25T14:00:53.953Z,3.60
2018-02-25T14:01:59.442Z,4.05
2018-02-25T14:03:04.764Z,4.09
2018-02-25T14:04:10.417Z,4.18
2018-02-25T14:05:16.091Z,4.74
2018-02-25T14:06:21.625Z,4.76
2018-02-25T14:07:26.969Z,4.63
2018-02-25T14:08:32.496Z,4.45
2018-02-25T14:09:37.930Z,4.05
2018-02-25T14:10:43.272Z,3.88
2018-02-25T14:11:48.999Z,3.90
2018-02-25T14:12:54.193Z,4.19
2018-02-25T14:13:59.329Z,4.14
2018-02-25T14:15:04.621Z,3.59
2018-02-25T14:16:09.824Z,3.81
2018-02-25T14:17:15.121Z,3.84